Time;durP1;ratioP1;P1;durP2;ratioP2;P2;SDS_P1;SDS_P2;PMS_P1;PMS_P2;Temp;Humidity;BMP_temperature;BMP_pressure;BME280_temperature;BME280_humidity;BME280_pressure;Samples;Min_cycle;Max_cycle;Signal;HPM_P1;HPM_P2
2024/01/23 00:02:17;;;;;;;65.13;11.23;;;;;;;;;;4876369;29;20048;-78
2024/01/23 00:04:45;;;;;;;47.25;10.48;;;;;;;;;;4867344;29;20133;-78
2024/01/23 00:07:12;;;;;;;42.03;10.43;;;;;;;;;;4862865;29;20053;-77
2024/01/23 00:09:39;;;;;;;87.88;12.82;;;;;;;;;;4866731;29;20049;-78
2024/01/23 00:12:07;;;;;;;39.05;9.15;;;;;;;;;;4869191;29;20053;-77
2024/01/23 00:14:34;;;;;;;57.47;10.15;;;;;;;;;;4871194;29;20126;-76
2024/01/23 00:17:02;;;;;;;45.92;10.07;;;;;;;;;;4871955;29;20609;-77
2024/01/23 00:19:28;;;;;;;50.38;10.15;;;;;;;;;;4873850;29;20426;-77
2024/01/23 00:21:55;;;;;;;44.10;9.60;;;;;;;;;;4861007;29;20068;-78
2024/01/23 00:24:21;;;;;;;113.85;13.70;;;;;;;;;;4866967;29;20065;-78
2024/01/23 00:26:48;;;;;;;43.03;11.35;;;;;;;;;;4866260;29;20412;-77
2024/01/23 00:29:15;;;;;;;35.58;10.02;;;;;;;;;;4871186;29;20065;-78
2024/01/23 00:31:42;;;;;;;95.55;13.43;;;;;;;;;;4872318;29;20049;-77
2024/01/23 00:34:09;;;;;;;41.72;10.85;;;;;;;;;;4875155;29;20041;-78
2024/01/23 00:36:36;;;;;;;44.97;9.70;;;;;;;;;;4874544;29;20037;-77
2024/01/23 00:39:02;;;;;;;69.07;11.93;;;;;;;;;;4863411;29;20045;-77
2024/01/23 00:41:31;;;;;;;56.03;11.07;;;;;;;;;;4863446;29;20101;-77
2024/01/23 00:43:57;;;;;;;45.20;9.90;;;;;;;;;;4870315;29;20056;-77
2024/01/23 00:46:24;;;;;;;69.80;10.82;;;;;;;;;;4871297;29;20077;-77
2024/01/23 00:48:50;;;;;;;39.90;9.73;;;;;;;;;;4871040;29;20489;-78
2024/01/23 00:51:18;;;;;;;41.55;10.18;;;;;;;;;;4875908;29;20045;-78
2024/01/23 00:53:45;;;;;;;94.82;12.65;;;;;;;;;;4869066;29;20042;-77
2024/01/23 00:56:11;;;;;;;43.35;10.05;;;;;;;;;;4864422;29;20042;-78
2024/01/23 00:58:38;;;;;;;39.35;9.57;;;;;;;;;;4866678;29;20045;-77
2024/01/23 01:01:04;;;;;;;80.25;12.23;;;;;;;;;;4864895;29;20078;-77
2024/01/23 01:03:33;;;;;;;56.35;10.60;;;;;;;;;;4870766;29;20049;-77
2024/01/23 01:06:00;;;;;;;52.53;10.55;;;;;;;;;;4871773;29;20034;-77
2024/01/23 01:08:26;;;;;;;67.55;10.50;;;;;;;;;;4874093;29;20049;-78
2024/01/23 01:10:53;;;;;;;42.25;10.38;;;;;;;;;;4866930;29;20541;-77
2024/01/23 01:13:19;;;;;;;42.90;9.18;;;;;;;;;;4862495;29;20076;-77
2024/01/23 01:15:46;;;;;;;88.68;12.70;;;;;;;;;;4865201;29;20053;-77
2024/01/23 01:18:12;;;;;;;36.92;9.18;;;;;;;;;;4866922;29;20493;-77
2024/01/23 01:20:39;;;;;;;40.25;9.20;;;;;;;;;;4869270;29;20424;-78
2024/01/23 01:23:06;;;;;;;69.40;11.32;;;;;;;;;;4871150;29;20068;-77
2024/01/23 01:25:33;;;;;;;53.67;10.43;;;;;;;;;;4873226;29;20068;-77
2024/01/23 01:27:59;;;;;;;43.80;9.65;;;;;;;;;;4866237;29;20077;-77
2024/01/23 01:30:29;;;;;;;81.25;11.88;;;;;;;;;;4863230;29;20041;-78
2024/01/23 01:32:56;;;;;;;49.28;10.32;;;;;;;;;;4864190;29;20458;-77
2024/01/23 01:35:23;;;;;;;48.65;10.38;;;;;;;;;;4850094;29;20045;-77
2024/01/23 01:37:49;;;;;;;80.45;13.00;;;;;;;;;;4869324;29;20044;-78
2024/01/23 01:40:16;;;;;;;37.90;9.15;;;;;;;;;;4872145;29;20124;-77
2024/01/23 01:42:43;;;;;;;54.78;10.05;;;;;;;;;;4875614;29;20139;-78
2024/01/23 01:45:10;;;;;;;72.30;11.35;;;;;;;;;;4865218;29;20128;-77
2024/01/23 01:47:39;;;;;;;67.47;10.85;;;;;;;;;;4861660;29;20041;-77
2024/01/23 01:50:06;;;;;;;29.92;8.55;;;;;;;;;;4866889;29;20573;-77
2024/01/23 01:52:33;;;;;;;79.32;11.93;;;;;;;;;;4867314;29;20047;-77
2024/01/23 01:54:59;;;;;;;42.35;10.55;;;;;;;;;;4869743;29;20522;-77
2024/01/23 01:57:31;;;;;;;68.68;11.30;;;;;;;;;;4872589;29;20052;-77
2024/01/23 01:59:58;;;;;;;89.22;12.13;;;;;;;;;;4872587;29;20053;-77
2024/01/23 02:05:05;;;;;;;78.95;11.68;;;;;;;;;;4836012;29;20091;-79
2024/01/23 02:07:33;;;;;;;65.07;10.75;;;;;;;;;;4837784;29;20122;-79
2024/01/23 02:10:00;;;;;;;39.75;9.07;;;;;;;;;;4837731;29;20102;-80
2024/01/23 02:12:28;;;;;;;77.60;11.95;;;;;;;;;;4837298;29;20048;-80
2024/01/23 02:14:54;;;;;;;60.42;10.68;;;;;;;;;;4837846;29;20136;-79
2024/01/23 02:17:21;;;;;;;54.50;10.35;;;;;;;;;;4836540;29;20050;-79
2024/01/23 02:19:50;;;;;;;63.40;10.02;;;;;;;;;;4835816;29;20053;-79
2024/01/23 02:22:17;;;;;;;77.38;12.07;;;;;;;;;;4837440;29;20057;-80
2024/01/23 02:24:44;;;;;;;43.70;9.50;;;;;;;;;;4837520;29;20058;-79
2024/01/23 02:27:10;;;;;;;65.68;9.55;;;;;;;;;;4837385;29;20119;-80
2024/01/23 02:29:37;;;;;;;54.30;9.73;;;;;;;;;;4836714;29;20593;-79
2024/01/23 02:32:04;;;;;;;39.55;8.90;;;;;;;;;;4837350;29;20042;-79
2024/01/23 02:34:30;;;;;;;61.80;9.57;;;;;;;;;;4837765;29;20046;-80
2024/01/23 02:36:57;;;;;;;53.03;9.95;;;;;;;;;;4838381;29;20050;-79
2024/01/23 02:39:25;;;;;;;95.88;11.80;;;;;;;;;;4840719;29;20107;-79
2024/01/23 02:41:52;;;;;;;55.42;9.65;;;;;;;;;;4840708;29;20103;-79
2024/01/23 02:44:19;;;;;;;54.40;9.93;;;;;;;;;;4841220;29;20053;-78
2024/01/23 02:46:46;;;;;;;48.83;9.63;;;;;;;;;;4838716;29;20042;-78
2024/01/23 02:49:12;;;;;;;41.15;8.18;;;;;;;;;;4837823;29;20134;-78
2024/01/23 02:51:39;;;;;;;80.22;10.65;;;;;;;;;;4840853;29;20098;-78
2024/01/23 02:54:05;;;;;;;46.72;8.85;;;;;;;;;;4841079;29;20046;-78
2024/01/23 02:56:32;;;;;;;45.30;9.27;;;;;;;;;;4840316;29;20046;-78
2024/01/23 02:58:59;;;;;;;78.78;10.05;;;;;;;;;;4839126;29;20775;-78
2024/01/23 03:01:25;;;;;;;49.50;9.30;;;;;;;;;;4840776;29;20120;-78
2024/01/23 03:03:52;;;;;;;50.47;8.73;;;;;;;;;;4838786;29;20093;-77
2024/01/23 03:06:19;;;;;;;93.50;10.93;;;;;;;;;;4839506;29;20125;-77
2024/01/23 03:08:45;;;;;;;56.25;8.82;;;;;;;;;;4828800;29;20051;-78
2024/01/23 03:11:12;;;;;;;56.22;8.52;;;;;;;;;;4829072;29;20065;-78
2024/01/23 03:13:38;;;;;;;117.43;13.25;;;;;;;;;;4828466;29;20103;-78
2024/01/23 03:16:05;;;;;;;47.45;8.15;;;;;;;;;;4834165;29;20489;-78
2024/01/23 03:18:32;;;;;;;41.38;7.45;;;;;;;;;;4836664;29;20051;-78
2024/01/23 03:20:59;;;;;;;77.57;10.50;;;;;;;;;;4836554;29;20050;-78
2024/01/23 03:23:25;;;;;;;56.13;8.52;;;;;;;;;;4837550;29;20412;-77
2024/01/23 03:25:52;;;;;;;48.65;9.32;;;;;;;;;;4825638;29;20053;-77
2024/01/23 03:28:18;;;;;;;112.65;12.27;;;;;;;;;;4829373;29;20086;-78
2024/01/23 03:30:45;;;;;;;37.75;8.20;;;;;;;;;;4831005;29;20058;-78
2024/01/23 03:33:12;;;;;;;59.33;8.63;;;;;;;;;;4832690;29;20042;-78
2024/01/23 03:35:38;;;;;;;119.93;12.50;;;;;;;;;;4835258;29;20532;-77
2024/01/23 03:38:05;;;;;;;49.38;8.05;;;;;;;;;;4836764;29;20078;-78
2024/01/23 03:40:31;;;;;;;52.80;8.30;;;;;;;;;;4834823;29;20390;-78
2024/01/23 03:42:58;;;;;;;95.07;10.48;;;;;;;;;;4826938;29;20049;-77
2024/01/23 03:45:25;;;;;;;44.40;8.65;;;;;;;;;;4827156;29;20145;-77
2024/01/23 03:47:51;;;;;;;42.40;7.68;;;;;;;;;;4831456;29;20647;-77
2024/01/23 03:50:18;;;;;;;80.75;9.85;;;;;;;;;;4831933;29;20141;-78
2024/01/23 03:52:44;;;;;;;37.28;6.63;;;;;;;;;;4835021;29;20138;-78
2024/01/23 03:55:11;;;;;;;42.65;7.47;;;;;;;;;;4837394;29;20552;-78
2024/01/23 03:57:38;;;;;;;85.82;9.98;;;;;;;;;;4832466;29;20061;-77
2024/01/23 04:00:06;;;;;;;45.00;8.65;;;;;;;;;;4824321;29;20102;-78
2024/01/23 04:02:39;;;;;;;39.03;6.78;;;;;;;;;;4829340;29;20050;-78
2024/01/23 04:05:07;;;;;;;85.03;10.23;;;;;;;;;;4836292;29;20042;-78
2024/01/23 04:07:33;;;;;;;60.20;8.77;;;;;;;;;;4842514;29;20513;-77
2024/01/23 04:10:00;;;;;;;62.08;8.57;;;;;;;;;;4848104;29;20124;-78
2024/01/23 04:12:27;;;;;;;76.03;9.07;;;;;;;;;;4853111;29;20141;-77
2024/01/23 04:14:54;;;;;;;51.22;8.23;;;;;;;;;;4839468;29;20102;-77
2024/01/23 04:17:20;;;;;;;44.75;7.75;;;;;;;;;;4831154;29;20039;-77
2024/01/23 04:19:47;;;;;;;91.45;10.82;;;;;;;;;;4833321;29;20078;-77
2024/01/23 04:22:14;;;;;;;76.38;9.52;;;;;;;;;;4840424;29;20107;-77
2024/01/23 04:24:43;;;;;;;42.70;7.82;;;;;;;;;;4842794;29;20142;-77
2024/01/23 04:27:09;;;;;;;86.65;10.93;;;;;;;;;;4846030;29;20125;-77
2024/01/23 04:29:36;;;;;;;63.47;9.25;;;;;;;;;;4853725;29;20397;-77
2024/01/23 04:32:03;;;;;;;46.88;7.00;;;;;;;;;;4835571;29;20052;-77
2024/01/23 04:34:29;;;;;;;71.90;8.68;;;;;;;;;;4828163;29;20157;-77
2024/01/23 04:36:56;;;;;;;79.32;10.00;;;;;;;;;;4833289;29;20045;-77
2024/01/23 04:39:22;;;;;;;87.25;10.02;;;;;;;;;;4837981;29;20037;-77
2024/01/23 04:41:49;;;;;;;68.22;9.02;;;;;;;;;;4844288;29;21056;-77
2024/01/23 04:44:15;;;;;;;52.22;8.98;;;;;;;;;;4847766;29;20445;-77
2024/01/23 04:46:42;;;;;;;37.65;7.07;;;;;;;;;;4854697;29;20046;-77
2024/01/23 04:49:09;;;;;;;52.85;8.27;;;;;;;;;;4828252;29;20474;-77
2024/01/23 04:51:35;;;;;;;88.00;11.00;;;;;;;;;;4830934;29;20042;-77
2024/01/23 04:54:02;;;;;;;49.80;8.80;;;;;;;;;;4833042;29;20129;-77
2024/01/23 04:56:28;;;;;;;76.95;9.77;;;;;;;;;;4840244;29;20041;-77
2024/01/23 04:58:55;;;;;;;59.92;9.10;;;;;;;;;;4843255;29;20124;-77
2024/01/23 05:01:21;;;;;;;56.13;9.07;;;;;;;;;;4849418;29;20049;-77
2024/01/23 05:03:48;;;;;;;63.20;9.02;;;;;;;;;;4855095;29;20054;-77
2024/01/23 05:06:15;;;;;;;73.50;10.85;;;;;;;;;;4842862;29;20050;-77
2024/01/23 05:08:41;;;;;;;41.50;7.20;;;;;;;;;;4845157;29;20053;-77
2024/01/23 05:11:08;;;;;;;66.00;9.32;;;;;;;;;;4848474;29;20102;-77
2024/01/23 05:13:35;;;;;;;87.40;9.85;;;;;;;;;;4850039;29;20050;-77
2024/01/23 05:16:01;;;;;;;45.17;8.55;;;;;;;;;;4851260;29;20061;-77
2024/01/23 05:18:28;;;;;;;47.05;8.32;;;;;;;;;;4853666;29;20489;-77
2024/01/23 05:20:56;;;;;;;88.35;10.57;;;;;;;;;;4850926;29;20065;-77
2024/01/23 05:23:24;;;;;;;39.08;8.73;;;;;;;;;;4843594;29;20073;-77
2024/01/23 05:25:50;;;;;;;58.38;9.27;;;;;;;;;;4844424;29;20501;-77
2024/01/23 05:28:17;;;;;;;79.07;9.98;;;;;;;;;;4846173;29;20065;-78
2024/01/23 05:30:43;;;;;;;47.15;7.78;;;;;;;;;;4850542;29;20130;-77
2024/01/23 05:33:10;;;;;;;48.58;9.65;;;;;;;;;;4851589;29;20053;-77
2024/01/23 05:35:37;;;;;;;97.57;11.38;;;;;;;;;;4853114;29;20117;-77
2024/01/23 05:38:04;;;;;;;64.53;9.70;;;;;;;;;;4850341;29;20049;-77
2024/01/23 05:40:30;;;;;;;46.08;8.98;;;;;;;;;;4841409;29;20048;-77
2024/01/23 05:42:57;;;;;;;99.32;11.85;;;;;;;;;;4845548;29;20064;-77
2024/01/23 05:45:23;;;;;;;52.17;8.45;;;;;;;;;;4847207;29;20129;-77
2024/01/23 05:47:50;;;;;;;44.63;8.32;;;;;;;;;;4847159;29;20492;-77
2024/01/23 05:50:17;;;;;;;89.00;11.68;;;;;;;;;;4852519;29;20037;-77
2024/01/23 05:52:43;;;;;;;51.60;9.10;;;;;;;;;;4854792;29;20046;-77
2024/01/23 05:55:11;;;;;;;41.55;8.40;;;;;;;;;;4844981;29;20459;-77
2024/01/23 05:57:37;;;;;;;120.88;13.27;;;;;;;;;;4842306;29;20120;-77
2024/01/23 06:00:06;;;;;;;50.22;7.90;;;;;;;;;;4843949;29;20100;-77
2024/01/23 06:02:33;;;;;;;48.55;9.02;;;;;;;;;;4848016;29;20133;-77
2024/01/23 06:04:59;;;;;;;78.95;10.18;;;;;;;;;;4849210;29;20077;-77
2024/01/23 06:07:26;;;;;;;64.10;10.02;;;;;;;;;;4852143;29;20045;-77
2024/01/23 06:09:52;;;;;;;49.63;7.93;;;;;;;;;;4854487;29;20044;-79
2024/01/23 06:12:19;;;;;;;94.68;11.50;;;;;;;;;;4849768;29;20077;-77
2024/01/23 06:14:46;;;;;;;53.63;8.65;;;;;;;;;;4848058;29;20121;-78
2024/01/23 06:17:12;;;;;;;36.00;8.02;;;;;;;;;;4851378;29;20121;-77
2024/01/23 06:19:39;;;;;;;103.05;12.43;;;;;;;;;;4835698;29;20137;-77
2024/01/23 06:22:06;;;;;;;48.00;8.68;;;;;;;;;;4855189;29;20505;-77
2024/01/23 06:24:33;;;;;;;66.93;9.68;;;;;;;;;;4858055;29;20078;-76
2024/01/23 06:26:59;;;;;;;77.35;10.95;;;;;;;;;;4860948;29;20081;-79
2024/01/23 06:29:26;;;;;;;68.78;10.23;;;;;;;;;;4849559;29;20121;-79
2024/01/23 06:31:53;;;;;;;43.70;8.57;;;;;;;;;;4849605;29;20046;-78
2024/01/23 06:34:21;;;;;;;74.13;10.70;;;;;;;;;;4850552;29;20157;-78
2024/01/23 06:36:48;;;;;;;56.47;9.43;;;;;;;;;;4854545;29;20491;-79
2024/01/23 06:39:15;;;;;;;70.25;10.13;;;;;;;;;;4855987;29;20050;-79
2024/01/23 06:41:44;;;;;;;84.32;11.60;;;;;;;;;;4858604;29;20097;-79
2024/01/23 06:44:11;;;;;;;83.47;11.68;;;;;;;;;;4854238;29;20052;-79
2024/01/23 06:46:38;;;;;;;56.40;10.30;;;;;;;;;;4846922;29;20110;-79
2024/01/23 06:49:04;;;;;;;104.72;12.75;;;;;;;;;;4849243;29;20492;-79
2024/01/23 06:51:31;;;;;;;87.90;12.02;;;;;;;;;;4850955;29;20074;-78
2024/01/23 06:53:57;;;;;;;71.70;11.15;;;;;;;;;;4853064;29;20409;-80
2024/01/23 06:56:27;;;;;;;82.30;11.50;;;;;;;;;;4856429;29;20042;-79
2024/01/23 06:58:55;;;;;;;58.22;11.25;;;;;;;;;;4856528;29;20073;-81
2024/01/23 07:01:21;;;;;;;60.38;11.05;;;;;;;;;;4842284;29;20132;-75
2024/01/23 07:03:49;;;;;;;80.25;12.05;;;;;;;;;;4842137;29;20418;-79
2024/01/23 07:06:16;;;;;;;55.25;11.00;;;;;;;;;;4831895;29;20522;-79
2024/01/23 07:08:42;;;;;;;49.15;10.52;;;;;;;;;;4834674;29;20106;-79
2024/01/23 07:11:09;;;;;;;96.88;13.65;;;;;;;;;;4835894;29;20118;-81
2024/01/23 07:13:35;;;;;;;77.18;11.77;;;;;;;;;;4839412;29;20046;-82
2024/01/23 07:16:02;;;;;;;62.72;11.23;;;;;;;;;;4841043;29;20137;-82
2024/01/23 07:18:28;;;;;;;54.35;10.85;;;;;;;;;;4836658;29;20554;-82
2024/01/23 07:20:55;;;;;;;78.95;12.57;;;;;;;;;;4835402;29;20042;-82
2024/01/23 07:23:22;;;;;;;55.47;10.20;;;;;;;;;;4831116;29;20041;-78
2024/01/23 07:25:48;;;;;;;67.25;11.77;;;;;;;;;;4830668;29;20050;-83
2024/01/23 07:28:15;;;;;;;63.67;11.07;;;;;;;;;;4833419;29;20042;-82
2024/01/23 07:31:00;;;;;;;48.47;10.93;;;;;;;;;;4835345;29;20137;-83
2024/01/23 07:33:28;;;;;;;97.32;12.93;;;;;;;;;;4837991;29;20083;-83
2024/01/23 07:35:54;;;;;;;59.47;10.30;;;;;;;;;;4824751;29;20053;-82
2024/01/23 07:38:21;;;;;;;70.10;11.50;;;;;;;;;;4827838;29;20107;-82
2024/01/23 07:40:48;;;;;;;88.78;11.98;;;;;;;;;;4830219;29;20129;-82
2024/01/23 07:43:23;;;;;;;52.00;10.32;;;;;;;;;;4832299;29;20490;-80
2024/01/23 07:45:49;;;;;;;77.47;11.20;;;;;;;;;;4833723;29;20053;-80
2024/01/23 07:48:16;;;;;;;64.07;10.80;;;;;;;;;;4835939;29;20122;-80
2024/01/23 07:50:42;;;;;;;42.13;8.90;;;;;;;;;;4839099;29;20125;-78
2024/01/23 07:53:09;;;;;;;44.92;9.40;;;;;;;;;;4825747;29;20043;-81
2024/01/23 07:55:35;;;;;;;72.18;10.80;;;;;;;;;;4827123;29;20042;-79
2024/01/23 07:58:02;;;;;;;49.45;9.02;;;;;;;;;;4829936;29;20049;-77
2024/01/23 08:00:29;;;;;;;71.15;9.85;;;;;;;;;;4831077;29;20386;-79
2024/01/23 08:02:56;;;;;;;72.63;10.60;;;;;;;;;;4834221;29;20132;-79
2024/01/23 08:05:22;;;;;;;40.92;7.95;;;;;;;;;;4852523;29;20496;-79
2024/01/23 08:07:49;;;;;;;56.15;8.63;;;;;;;;;;4853345;29;20202;-79
2024/01/23 08:10:15;;;;;;;69.40;8.95;;;;;;;;;;4846650;29;20486;-79
2024/01/23 08:12:42;;;;;;;65.25;8.80;;;;;;;;;;4845105;29;20565;-79
2024/01/23 08:15:11;;;;;;;49.53;8.30;;;;;;;;;;4848179;29;20573;-79
2024/01/23 08:17:38;;;;;;;121.30;13.23;;;;;;;;;;4849363;29;20210;-79
2024/01/23 08:20:08;;;;;;;61.83;8.95;;;;;;;;;;4852452;29;20076;-79
2024/01/23 08:22:34;;;;;;;55.40;8.73;;;;;;;;;;4855497;29;20532;-79
2024/01/23 08:25:01;;;;;;;87.50;10.27;;;;;;;;;;4851728;29;20054;-79
2024/01/23 08:27:28;;;;;;;67.80;9.48;;;;;;;;;;4843171;29;20038;-78
2024/01/23 08:29:55;;;;;;;68.72;8.88;;;;;;;;;;4844077;29;20061;-79
2024/01/23 08:32:22;;;;;;;77.53;9.32;;;;;;;;;;4847282;29;20157;-78
2024/01/23 08:34:49;;;;;;;38.75;6.15;;;;;;;;;;4849074;29;20991;-79
2024/01/23 08:37:15;;;;;;;51.53;7.93;;;;;;;;;;4852929;29;20049;-79
2024/01/23 08:39:42;;;;;;;100.20;10.27;;;;;;;;;;4853895;29;20149;-78
2024/01/23 08:42:09;;;;;;;64.50;8.48;;;;;;;;;;4848881;29;20073;-78
2024/01/23 08:44:40;;;;;;;36.65;6.72;;;;;;;;;;4843682;29;20049;-79
2024/01/23 08:47:06;;;;;;;60.03;9.60;;;;;;;;;;4843705;29;20105;-79
2024/01/23 08:49:33;;;;;;;90.63;11.85;;;;;;;;;;4848507;29;20094;-78
2024/01/23 08:51:59;;;;;;;58.53;9.05;;;;;;;;;;4849830;29;20046;-79
2024/01/23 08:54:26;;;;;;;123.47;11.90;;;;;;;;;;4852843;29;20045;-78
2024/01/23 08:56:56;;;;;;;56.13;9.43;;;;;;;;;;4855514;29;20048;-79
2024/01/23 08:59:24;;;;;;;56.35;8.63;;;;;;;;;;4842966;29;20405;-78
2024/01/23 09:01:51;;;;;;;55.78;9.23;;;;;;;;;;4844433;29;20109;-78
2024/01/23 09:04:18;;;;;;;46.75;7.47;;;;;;;;;;4850972;29;20061;-79
2024/01/23 09:06:44;;;;;;;57.35;8.05;;;;;;;;;;4846834;29;20069;-79
2024/01/23 09:09:11;;;;;;;77.50;9.75;;;;;;;;;;4850595;29;20126;-79
2024/01/23 09:11:38;;;;;;;120.30;12.80;;;;;;;;;;4852382;29;20048;-79
2024/01/23 09:14:04;;;;;;;54.17;8.93;;;;;;;;;;4855605;29;20121;-80
2024/01/23 09:16:31;;;;;;;93.68;12.00;;;;;;;;;;4846073;29;20188;-80
2024/01/23 09:18:57;;;;;;;87.65;11.00;;;;;;;;;;4843095;29;20048;-80
2024/01/23 09:21:24;;;;;;;66.68;11.02;;;;;;;;;;4846780;29;20408;-79
2024/01/23 09:23:51;;;;;;;94.88;10.80;;;;;;;;;;4848244;29;20132;-80
2024/01/23 09:26:18;;;;;;;56.83;8.98;;;;;;;;;;4850327;29;20042;-79
2024/01/23 09:28:44;;;;;;;42.75;7.25;;;;;;;;;;4853141;29;20054;-79
2024/01/23 09:31:11;;;;;;;113.68;11.13;;;;;;;;;;4852830;29;20540;-79
2024/01/23 09:33:37;;;;;;;100.05;10.55;;;;;;;;;;4840736;29;20034;-79
2024/01/23 09:36:04;;;;;;;46.20;7.13;;;;;;;;;;4846864;29;20057;-80
2024/01/23 09:38:31;;;;;;;76.18;9.95;;;;;;;;;;4849804;29;20493;-80
2024/01/23 09:40:57;;;;;;;71.28;9.75;;;;;;;;;;4852820;29;20527;-79
2024/01/23 09:43:26;;;;;;;56.53;8.75;;;;;;;;;;4851951;29;20399;-79
2024/01/23 09:45:53;;;;;;;77.22;9.13;;;;;;;;;;4852077;29;20607;-80
2024/01/23 09:48:20;;;;;;;50.60;8.45;;;;;;;;;;4847456;29;20053;-78
2024/01/23 09:50:52;;;;;;;47.08;8.25;;;;;;;;;;4842853;29;20060;-80
2024/01/23 09:53:20;;;;;;;75.35;9.43;;;;;;;;;;4843745;29;20102;-80
2024/01/23 09:55:46;;;;;;;102.18;10.98;;;;;;;;;;4849166;29;20060;-80
2024/01/23 09:58:13;;;;;;;77.55;9.73;;;;;;;;;;4848188;29;20103;-80
2024/01/23 10:00:42;;;;;;;61.22;9.10;;;;;;;;;;4836888;29;22312;-80
2024/01/23 10:03:10;;;;;;;80.68;10.52;;;;;;;;;;4852712;29;20125;-79
2024/01/23 10:05:40;;;;;;;86.88;10.40;;;;;;;;;;4845503;29;20053;-79
2024/01/23 10:08:06;;;;;;;52.42;7.65;;;;;;;;;;4844285;29;20049;-78
2024/01/23 10:10:35;;;;;;;75.10;9.38;;;;;;;;;;4828174;29;20041;-79
2024/01/23 10:13:44;;;;;;;;;;;;;;;;;;;;;
2024/01/23 10:16:29;;;;;;;122.47;10.90;;;;;;;;;;4862947;29;20484;-80
2024/01/23 10:19:19;;;;;;;45.20;9.25;;;;;;;;;;4831318;29;20491;-79
2024/01/23 10:22:18;;;;;;;72.70;8.90;;;;;;;;;;4844542;29;20432;-81
2024/01/23 10:25:21;;;;;;;80.00;8.88;;;;;;;;;;4791693;29;20056;-80
2024/01/23 10:28:24;;;;;;;93.78;9.27;;;;;;;;;;4809436;29;20056;-79
2024/01/23 10:31:00;;;;;;;;;;;;;;;;;;;;;
2024/01/23 10:33:53;;;;;;;48.17;7.45;;;;;;;;;;4774879;30;20109;-79
2024/01/23 10:36:40;;;;;;;61.03;8.00;;;;;;;;;;4825484;29;20046;-80
2024/01/23 10:39:35;;;;;;;79.85;9.52;;;;;;;;;;4846882;29;20057;-82
2024/01/23 10:42:04;;;;;;;73.65;10.15;;;;;;;;;;4841714;29;20054;-81
2024/01/23 10:44:31;;;;;;;41.33;7.05;;;;;;;;;;4844187;29;20637;-81
2024/01/23 10:47:31;;;;;;;;;;;;;;;;;;;;;
2024/01/23 10:50:10;;;;;;;92.38;9.13;;;;;;;;;;4797583;29;20047;-81
2024/01/23 10:52:43;;;;;;;54.63;7.72;;;;;;;;;;4855539;29;20417;-80
2024/01/23 10:55:12;;;;;;;84.05;9.57;;;;;;;;;;4852355;29;20058;-80
2024/01/23 10:57:46;;;;;;;111.15;9.82;;;;;;;;;;4834447;29;20049;-81
2024/01/23 11:00:14;;;;;;;34.80;6.38;;;;;;;;;;4839446;29;20046;-81
2024/01/23 11:02:58;;;;;;;101.07;10.27;;;;;;;;;;4850209;29;20045;-81
2024/01/23 11:05:27;;;;;;;78.63;7.95;;;;;;;;;;4854349;29;20049;-80
2024/01/23 11:08:00;;;;;;;94.90;8.70;;;;;;;;;;4854469;29;20049;-80
2024/01/23 11:10:42;;;;;;;39.67;6.43;;;;;;;;;;4858135;29;20056;-80
2024/01/23 11:13:38;;;;;;;68.45;8.15;;;;;;;;;;4842271;29;20061;-79
2024/01/23 11:16:14;;;;;;;86.07;9.30;;;;;;;;;;4866511;29;20054;-81
2024/01/23 11:18:41;;;;;;;68.53;9.13;;;;;;;;;;4831978;29;20489;-81
2024/01/23 11:21:43;;;;;;;132.18;11.98;;;;;;;;;;4821089;29;20405;-80
2024/01/23 11:24:23;;;;;;;;;;;;;;;;;;;;;
2024/01/23 11:26:54;;;;;;;122.70;11.43;;;;;;;;;;4842409;29;20048;-80
2024/01/23 11:29:20;;;;;;;42.05;6.80;;;;;;;;;;4847509;29;20042;-79
2024/01/23 11:31:48;;;;;;;79.50;8.98;;;;;;;;;;4833022;29;20547;-79
2024/01/23 11:34:21;;;;;;;109.28;11.15;;;;;;;;;;4845691;29;20046;-79
2024/01/23 11:36:49;;;;;;;62.72;8.05;;;;;;;;;;4836922;29;20045;-80
2024/01/23 11:39:51;;;;;;;;;;;;;;;;;;;;;
2024/01/23 11:42:47;;;;;;;79.40;9.40;;;;;;;;;;4853495;29;20509;-79
2024/01/23 11:45:26;;;;;;;51.72;8.05;;;;;;;;;;4854273;29;20045;-79
2024/01/23 11:47:57;;;;;;;83.43;8.52;;;;;;;;;;4853742;29;20049;-82
2024/01/23 11:50:34;;;;;;;89.75;9.82;;;;;;;;;;4852718;29;20038;-79
2024/01/23 11:53:03;;;;;;;125.60;11.37;;;;;;;;;;4832551;29;20053;-79
2024/01/23 11:55:59;;;;;;;49.38;7.32;;;;;;;;;;4849898;29;20057;-79
2024/01/23 11:58:39;;;;;;;85.07;9.35;;;;;;;;;;4837415;29;20057;-79
2024/01/23 12:01:27;;;;;;;74.20;7.72;;;;;;;;;;4856560;29;20412;-79
2024/01/23 12:03:58;;;;;;;73.63;8.85;;;;;;;;;;4846047;29;20425;-79
2024/01/23 12:06:26;;;;;;;95.70;10.68;;;;;;;;;;4866561;29;20049;-79
2024/01/23 12:09:02;;;;;;;131.07;11.32;;;;;;;;;;4849161;29;20041;-82
2024/01/23 12:11:55;;;;;;;74.60;8.48;;;;;;;;;;4854421;29;20038;-79
2024/01/23 12:14:22;;;;;;;43.13;6.38;;;;;;;;;;4852779;29;20493;-79
2024/01/23 12:17:03;;;;;;;77.65;9.65;;;;;;;;;;4839022;29;20045;-79
2024/01/23 12:19:43;;;;;;;102.32;11.02;;;;;;;;;;4847853;29;20045;-79
2024/01/23 12:22:09;;;;;;;70.90;8.70;;;;;;;;;;4846385;29;20054;-81
2024/01/23 12:24:37;;;;;;;72.40;8.45;;;;;;;;;;4847432;29;20056;-82
2024/01/23 12:27:04;;;;;;;81.70;8.15;;;;;;;;;;4854145;29;20049;-82
2024/01/23 12:29:31;;;;;;;79.50;9.32;;;;;;;;;;4846652;29;20611;-82
2024/01/23 12:31:58;;;;;;;86.60;9.80;;;;;;;;;;4849338;29;20111;-79
2024/01/23 12:34:29;;;;;;;50.88;6.97;;;;;;;;;;4850900;29;20074;-79
2024/01/23 12:36:59;;;;;;;90.20;9.77;;;;;;;;;;4847734;29;20046;-78
2024/01/23 12:39:29;;;;;;;166.40;13.93;;;;;;;;;;4855077;29;20074;-79
2024/01/23 12:41:59;;;;;;;51.38;8.43;;;;;;;;;;4850535;29;20144;-79
2024/01/23 12:44:26;;;;;;;69.07;8.68;;;;;;;;;;4853120;29;20129;-79
2024/01/23 12:47:18;;;;;;;34.40;6.53;;;;;;;;;;4837448;29;20489;-79
2024/01/23 12:49:50;;;;;;;89.70;10.20;;;;;;;;;;4848167;29;20050;-79
2024/01/23 12:52:18;;;;;;;86.32;8.55;;;;;;;;;;4851748;29;20098;-80
2024/01/23 12:54:53;;;;;;;54.35;7.15;;;;;;;;;;4844082;29;20403;-81
2024/01/23 12:57:28;;;;;;;70.80;7.75;;;;;;;;;;4850002;29;20072;-81
2024/01/23 13:00:08;;;;;;;49.70;7.70;;;;;;;;;;4846915;29;20493;-81
2024/01/23 13:03:23;;;;;;;49.17;7.47;;;;;;;;;;4823196;29;20057;-80
2024/01/23 13:06:17;;;;;;;65.90;8.07;;;;;;;;;;4849098;29;20045;-80
2024/01/23 13:08:52;;;;;;;95.15;8.98;;;;;;;;;;4854299;29;20049;-81
2024/01/23 13:11:50;;;;;;;75.15;9.73;;;;;;;;;;4833311;29;20450;-81
2024/01/23 13:14:42;;;;;;;51.00;7.32;;;;;;;;;;4786962;29;20050;-80
2024/01/23 13:17:19;;;;;;;74.65;8.52;;;;;;;;;;4805161;29;20145;-80
2024/01/23 13:20:23;;;;;;;;;;;;;;;;;;;;;
2024/01/23 13:23:11;;;;;;;71.03;7.50;;;;;;;;;;4779202;29;20055;-80
2024/01/23 13:26:11;;;;;;;132.57;11.80;;;;;;;;;;4721537;30;20501;-80
2024/01/23 13:28:52;;;;;;;139.85;10.93;;;;;;;;;;4743708;30;20611;-79
2024/01/23 13:32:20;;;;;;;123.30;10.80;;;;;;;;;;4711040;30;20052;-81
2024/01/23 13:35:36;;;;;;;;;;;;;;;;;;;;;
2024/01/23 13:38:42;;;;;;;97.15;9.80;;;;;;;;;;4757926;29;20158;-76
2024/01/23 13:41:23;;;;;;;84.93;8.48;;;;;;;;;;4781832;30;20059;-80
2024/01/23 13:43:50;;;;;;;87.15;9.50;;;;;;;;;;4786587;30;20051;-80
2024/01/23 13:46:17;;;;;;;75.53;9.00;;;;;;;;;;4788808;30;20068;-79
2024/01/23 13:48:46;;;;;;;80.38;8.77;;;;;;;;;;4837251;29;20069;-79
2024/01/23 13:51:13;;;;;;;59.45;9.48;;;;;;;;;;4861269;29;20061;-80
2024/01/23 13:53:41;;;;;;;86.35;10.20;;;;;;;;;;4851906;29;20057;-77
2024/01/23 13:56:07;;;;;;;126.80;11.88;;;;;;;;;;4850365;29;20069;-77
2024/01/23 13:58:34;;;;;;;37.35;7.65;;;;;;;;;;4848143;29;20476;-77
2024/01/23 14:01:01;;;;;;;58.97;9.82;;;;;;;;;;4852376;29;20390;-76
2024/01/23 14:03:27;;;;;;;113.80;12.63;;;;;;;;;;4846892;29;20114;-76
2024/01/23 14:05:54;;;;;;;68.15;9.88;;;;;;;;;;4850184;29;20045;-76
2024/01/23 14:08:21;;;;;;;57.40;7.80;;;;;;;;;;4847697;29;20034;-77
2024/01/23 14:10:48;;;;;;;71.25;8.13;;;;;;;;;;4847028;29;20050;-76
2024/01/23 14:13:14;;;;;;;49.97;7.18;;;;;;;;;;4847704;29;20114;-77
2024/01/23 14:15:41;;;;;;;68.22;7.90;;;;;;;;;;4842572;29;20059;-76
2024/01/23 14:18:07;;;;;;;67.88;8.15;;;;;;;;;;4850743;29;20044;-77
2024/01/23 14:20:34;;;;;;;48.85;7.43;;;;;;;;;;4851575;29;20042;-76
2024/01/23 14:23:00;;;;;;;40.10;7.30;;;;;;;;;;4846816;29;20049;-76
2024/01/23 14:25:27;;;;;;;90.05;9.90;;;;;;;;;;4846053;29;20049;-77
2024/01/23 14:27:54;;;;;;;58.28;9.35;;;;;;;;;;4844731;29;20125;-76
2024/01/23 14:30:21;;;;;;;58.47;8.68;;;;;;;;;;4845828;29;20056;-76
2024/01/23 14:32:49;;;;;;;66.70;8.60;;;;;;;;;;4851429;29;20042;-76
2024/01/23 14:35:17;;;;;;;56.85;7.68;;;;;;;;;;4865048;29;20595;-76
2024/01/23 14:37:44;;;;;;;68.57;8.95;;;;;;;;;;4856149;29;20069;-76
2024/01/23 14:40:12;;;;;;;81.97;9.55;;;;;;;;;;4848998;29;20094;-77
2024/01/23 14:42:39;;;;;;;44.15;7.45;;;;;;;;;;4852373;29;20055;-76
2024/01/23 14:45:08;;;;;;;51.30;8.23;;;;;;;;;;4856721;29;20096;-76
2024/01/23 14:47:39;;;;;;;109.85;11.10;;;;;;;;;;4846268;29;20160;-76
2024/01/23 14:50:07;;;;;;;59.75;7.93;;;;;;;;;;4853663;29;20072;-76
2024/01/23 14:52:33;;;;;;;35.33;7.18;;;;;;;;;;4848053;29;20048;-75